Time;durP1;ratioP1;P1;durP2;ratioP2;P2;SDS_P1;SDS_P2;PMS_P1;PMS_P2;Temp;Humidity;BMP_temperature;BMP_pressure;BME280_temperature;BME280_humidity;BME280_pressure;Samples;Min_cycle;Max_cycle;Signal;HPM_P1;HPM_P2
2022/03/10 00:00:37;;;;;;;20.27;13.10;;;;;;;;;;5016469;28;20443;-69
2022/03/10 00:03:05;;;;;;;20.38;12.95;;;;;;;;;;5032710;28;20053;-68
2022/03/10 00:05:34;;;;;;;20.75;12.35;;;;;;;;;;5033682;28;20046;-68
2022/03/10 00:08:26;;;;;;;24.27;12.93;;;;;;;;;;5016245;28;20037;-68
2022/03/10 00:11:19;;;;;;;23.27;13.07;;;;;;;;;;5016292;28;20131;-68
2022/03/10 00:13:51;;;;;;;26.00;14.40;;;;;;;;;;5033973;28;20046;-68
2022/03/10 00:16:18;;;;;;;25.55;13.88;;;;;;;;;;5033777;28;20045;-68
2022/03/10 00:18:52;;;;;;;24.38;13.80;;;;;;;;;;5033738;28;20046;-68
2022/03/10 00:21:25;;;;;;;25.60;14.32;;;;;;;;;;5033670;28;20045;-69
2022/03/10 00:23:54;;;;;;;27.38;14.65;;;;;;;;;;5015812;28;20045;-68
2022/03/10 00:26:40;;;;;;;23.83;14.20;;;;;;;;;;5033791;28;20041;-68
2022/03/10 00:29:07;;;;;;;24.08;14.40;;;;;;;;;;5015513;28;20088;-68
2022/03/10 00:32:01;;;;;;;26.75;15.88;;;;;;;;;;5032684;28;20120;-68
2022/03/10 00:34:30;;;;;;;25.98;15.00;;;;;;;;;;5033903;28;20049;-68
2022/03/10 00:37:13;;;;;;;26.52;14.60;;;;;;;;;;5015237;28;20037;-68
2022/03/10 00:40:05;;;;;;;26.52;15.00;;;;;;;;;;5015361;28;20068;-68
2022/03/10 00:42:36;;;;;;;27.83;15.48;;;;;;;;;;5015713;28;20045;-68
2022/03/10 00:45:06;;;;;;;25.52;15.35;;;;;;;;;;5032646;28;20061;-69
2022/03/10 00:47:34;;;;;;;29.70;16.00;;;;;;;;;;5015845;28;20407;-69
2022/03/10 00:50:26;;;;;;;28.08;16.40;;;;;;;;;;5033458;28;20052;-68
2022/03/10 00:52:56;;;;;;;29.27;16.25;;;;;;;;;;5033143;28;20377;-69
2022/03/10 00:55:24;;;;;;;31.98;18.13;;;;;;;;;;5033132;28;20598;-68
2022/03/10 00:57:52;;;;;;;30.55;17.98;;;;;;;;;;5031820;28;20045;-68
2022/03/10 01:00:28;;;;;;;32.90;18.35;;;;;;;;;;4999204;28;20050;-68
2022/03/10 01:02:58;;;;;;;33.03;18.60;;;;;;;;;;5016225;28;20136;-69
2022/03/10 01:05:28;;;;;;;37.78;21.13;;;;;;;;;;5015199;28;20160;-68
2022/03/10 01:08:01;;;;;;;42.70;22.52;;;;;;;;;;5033036;28;20044;-68
2022/03/10 01:10:28;;;;;;;38.47;21.20;;;;;;;;;;5033324;28;20045;-68
2022/03/10 01:13:21;;;;;;;34.72;20.13;;;;;;;;;;5032770;28;20116;-68
2022/03/10 01:15:49;;;;;;;38.38;20.15;;;;;;;;;;5015150;28;20045;-69
2022/03/10 01:18:23;;;;;;;37.45;20.05;;;;;;;;;;5033115;28;20037;-69
2022/03/10 01:20:52;;;;;;;36.10;19.10;;;;;;;;;;5032959;28;20554;-69
2022/03/10 01:23:21;;;;;;;37.78;18.98;;;;;;;;;;5032892;28;20047;-69
2022/03/10 01:25:51;;;;;;;37.92;18.77;;;;;;;;;;5032437;28;20095;-69
2022/03/10 01:28:19;;;;;;;34.67;18.17;;;;;;;;;;5014970;28;20041;-69
2022/03/10 01:30:51;;;;;;;29.50;16.92;;;;;;;;;;5015431;28;20531;-69
2022/03/10 01:33:22;;;;;;;30.50;17.30;;;;;;;;;;5032798;28;20038;-69
2022/03/10 01:35:49;;;;;;;27.98;16.92;;;;;;;;;;5032953;28;20044;-69
2022/03/10 01:38:21;;;;;;;28.55;16.30;;;;;;;;;;5014819;28;20046;-68
2022/03/10 01:40:49;;;;;;;27.20;15.77;;;;;;;;;;5015397;28;20120;-68
2022/03/10 01:43:18;;;;;;;28.25;15.93;;;;;;;;;;5032865;28;20033;-68
2022/03/10 01:45:46;;;;;;;23.67;14.00;;;;;;;;;;5015164;28;20046;-68
2022/03/10 01:48:17;;;;;;;24.55;14.77;;;;;;;;;;5014936;28;20034;-69
2022/03/10 01:50:46;;;;;;;26.05;15.00;;;;;;;;;;5015391;28;20041;-69
2022/03/10 01:53:16;;;;;;;24.60;14.85;;;;;;;;;;5014902;28;20065;-69
2022/03/10 01:55:49;;;;;;;25.92;14.10;;;;;;;;;;5031226;28;20053;-69
2022/03/10 01:58:18;;;;;;;26.33;15.77;;;;;;;;;;5018771;28;20049;-69
2022/03/10 02:00:47;;;;;;;24.08;14.75;;;;;;;;;;5019083;28;20400;-69
2022/03/10 02:03:18;;;;;;;26.40;15.65;;;;;;;;;;5018479;28;20053;-68
2022/03/10 02:05:45;;;;;;;28.30;15.40;;;;;;;;;;5036220;28;20049;-69
2022/03/10 02:11:09;;;;;;;24.90;14.32;;;;;;;;;;5018327;28;20100;-69
2022/03/10 02:13:41;;;;;;;23.40;14.32;;;;;;;;;;5018241;28;20398;-69
2022/03/10 02:19:05;;;;;;;23.45;14.30;;;;;;;;;;5036040;28;20054;-69
2022/03/10 02:21:33;;;;;;;20.10;13.45;;;;;;;;;;5036021;28;20065;-69
2022/03/10 02:24:25;;;;;;;20.85;12.43;;;;;;;;;;5018335;28;20045;-69
2022/03/10 02:26:54;;;;;;;20.15;11.85;;;;;;;;;;5018007;28;20124;-69
2022/03/10 02:29:26;;;;;;;18.55;11.52;;;;;;;;;;5018694;28;20054;-68
2022/03/10 02:31:53;;;;;;;18.05;10.55;;;;;;;;;;5035885;28;20041;-69
2022/03/10 02:34:47;;;;;;;18.15;10.75;;;;;;;;;;5018322;28;20052;-69
2022/03/10 02:37:19;;;;;;;15.65;10.20;;;;;;;;;;5017897;28;20068;-69
2022/03/10 02:39:50;;;;;;;18.65;11.90;;;;;;;;;;5017803;28;20053;-69
2022/03/10 02:42:21;;;;;;;20.83;13.25;;;;;;;;;;5016993;28;20087;-69
2022/03/10 02:44:50;;;;;;;23.10;13.30;;;;;;;;;;5001770;28;20104;-69
2022/03/10 02:47:23;;;;;;;22.38;13.30;;;;;;;;;;5035387;28;20056;-68
2022/03/10 02:49:51;;;;;;;24.10;13.93;;;;;;;;;;5035476;28;20053;-69
2022/03/10 02:52:23;;;;;;;21.52;13.65;;;;;;;;;;5035224;28;20038;-69
2022/03/10 02:54:54;;;;;;;23.15;13.27;;;;;;;;;;5035616;28;20434;-69
2022/03/10 02:57:33;;;;;;;22.33;13.77;;;;;;;;;;5035112;28;20450;-69
2022/03/10 03:00:01;;;;;;;25.40;14.15;;;;;;;;;;5016956;28;20049;-68
2022/03/10 03:02:48;;;;;;;23.15;14.30;;;;;;;;;;5017324;28;20041;-68
2022/03/10 03:05:40;;;;;;;23.23;14.15;;;;;;;;;;5017221;28;20423;-69
2022/03/10 03:08:11;;;;;;;21.42;13.00;;;;;;;;;;5034152;28;20057;-68
2022/03/10 03:11:03;;;;;;;19.35;12.25;;;;;;;;;;5035186;28;20400;-68
2022/03/10 03:13:56;;;;;;;19.00;11.90;;;;;;;;;;5035315;28;20038;-68
2022/03/10 03:16:49;;;;;;;22.15;12.63;;;;;;;;;;5017190;28;20504;-68
2022/03/10 03:19:42;;;;;;;22.98;13.32;;;;;;;;;;5035091;28;20046;-68
2022/03/10 03:22:35;;;;;;;21.70;12.50;;;;;;;;;;5035194;28;20214;-69
2022/03/10 03:25:28;;;;;;;22.95;13.65;;;;;;;;;;5000619;28;20065;-69
2022/03/10 03:28:00;;;;;;;22.08;13.75;;;;;;;;;;5034759;28;20042;-69
2022/03/10 03:30:33;;;;;;;24.88;14.13;;;;;;;;;;5017118;28;20137;-69
2022/03/10 03:33:00;;;;;;;24.58;14.98;;;;;;;;;;5016714;28;20045;-69
2022/03/10 03:39:25;;;;;;;24.85;15.02;;;;;;;;;;5034632;28;20106;-69
2022/03/10 03:41:52;;;;;;;27.35;14.85;;;;;;;;;;5016528;28;20045;-69
2022/03/10 03:44:45;;;;;;;23.42;13.65;;;;;;;;;;5017620;28;20042;-69
2022/03/10 03:47:38;;;;;;;21.48;13.45;;;;;;;;;;5034237;28;20120;-69
2022/03/10 03:50:10;;;;;;;15.73;10.05;;;;;;;;;;5032886;28;20045;-68
2022/03/10 03:52:37;;;;;;;17.30;10.63;;;;;;;;;;5000059;28;20111;-69
2022/03/10 03:55:07;;;;;;;19.35;10.70;;;;;;;;;;5016017;28;20065;-69
2022/03/10 03:57:37;;;;;;;17.85;9.85;;;;;;;;;;5016351;28;20485;-69
2022/03/10 04:00:07;;;;;;;15.73;9.98;;;;;;;;;;5034216;28;20091;-69
2022/03/10 04:02:39;;;;;;;15.63;9.75;;;;;;;;;;5016158;28;20052;-69
2022/03/10 04:05:07;;;;;;;16.85;9.98;;;;;;;;;;5033919;28;20052;-69
2022/03/10 04:10:37;;;;;;;17.25;10.32;;;;;;;;;;5016276;28;20042;-69
2022/03/10 04:13:05;;;;;;;17.55;11.02;;;;;;;;;;5016594;28;20091;-69
2022/03/10 04:15:38;;;;;;;15.77;9.98;;;;;;;;;;5015795;28;20044;-68
2022/03/10 04:18:05;;;;;;;18.85;10.57;;;;;;;;;;5034035;28;20068;-68
2022/03/10 04:20:33;;;;;;;18.42;11.68;;;;;;;;;;5033725;28;20374;-68
2022/03/10 04:23:04;;;;;;;18.08;10.50;;;;;;;;;;5033687;28;20037;-69
2022/03/10 04:25:56;;;;;;;14.93;10.07;;;;;;;;;;5033889;28;20404;-69
2022/03/10 04:28:24;;;;;;;16.90;10.27;;;;;;;;;;5015747;28;20128;-69
2022/03/10 04:30:56;;;;;;;18.63;11.35;;;;;;;;;;5015550;28;20115;-69
2022/03/10 04:33:29;;;;;;;16.40;10.30;;;;;;;;;;5033924;28;20116;-69
2022/03/10 04:35:57;;;;;;;18.90;10.57;;;;;;;;;;5015723;28;20060;-69
2022/03/10 04:38:29;;;;;;;17.83;10.30;;;;;;;;;;5033453;28;20046;-69
2022/03/10 04:40:57;;;;;;;19.20;11.38;;;;;;;;;;5033362;28;20084;-69
2022/03/10 04:43:29;;;;;;;18.58;10.20;;;;;;;;;;5033218;28;20095;-68
2022/03/10 04:45:59;;;;;;;20.65;11.55;;;;;;;;;;5015730;28;20050;-68
2022/03/10 04:48:27;;;;;;;19.48;11.23;;;;;;;;;;5015421;28;20080;-68
2022/03/10 04:50:56;;;;;;;19.70;11.23;;;;;;;;;;4999368;28;20080;-69
2022/03/10 04:53:28;;;;;;;24.73;13.18;;;;;;;;;;5015629;28;20064;-69
2022/03/10 04:56:21;;;;;;;25.52;12.80;;;;;;;;;;5033201;28;20403;-69
2022/03/10 04:58:51;;;;;;;32.25;13.68;;;;;;;;;;5033429;28;20045;-69
2022/03/10 05:01:20;;;;;;;34.17;16.88;;;;;;;;;;5015460;28;20033;-70
2022/03/10 05:03:52;;;;;;;37.97;18.73;;;;;;;;;;5015491;28;20041;-76
2022/03/10 05:06:25;;;;;;;29.13;15.00;;;;;;;;;;5032981;28;20041;-75
2022/03/10 05:08:54;;;;;;;21.70;12.18;;;;;;;;;;5014858;28;20538;-76
2022/03/10 05:11:25;;;;;;;19.50;10.65;;;;;;;;;;5031673;28;20050;-76
2022/03/10 05:13:57;;;;;;;14.48;8.70;;;;;;;;;;5032850;28;20400;-76
2022/03/10 05:16:27;;;;;;;11.45;7.43;;;;;;;;;;5015541;28;20033;-75
2022/03/10 05:18:58;;;;;;;13.80;8.02;;;;;;;;;;5015308;28;20037;-74
2022/03/10 05:21:25;;;;;;;16.48;9.68;;;;;;;;;;5031533;28;20404;-75
2022/03/10 05:23:55;;;;;;;15.52;8.98;;;;;;;;;;5032664;28;20046;-75
2022/03/10 05:29:51;;;;;;;21.50;10.40;;;;;;;;;;5029454;28;20420;-75
2022/03/10 05:35:55;;;;;;;36.40;16.13;;;;;;;;;;5034253;28;20056;-75
2022/03/10 05:41:38;;;;;;;43.00;18.25;;;;;;;;;;5036114;28;20095;-75
2022/03/10 05:44:31;;;;;;;40.03;18.20;;;;;;;;;;5034527;28;20076;-74
2022/03/10 05:47:24;;;;;;;39.00;16.23;;;;;;;;;;5035479;28;20582;-74
2022/03/10 05:49:52;;;;;;;30.70;14.25;;;;;;;;;;5018726;28;20490;-75
2022/03/10 05:52:23;;;;;;;20.90;10.68;;;;;;;;;;5034836;28;20033;-74
2022/03/10 05:54:51;;;;;;;27.52;12.90;;;;;;;;;;5013240;28;20046;-75
2022/03/10 05:57:20;;;;;;;21.13;10.07;;;;;;;;;;5034508;28;20037;-75
2022/03/10 06:00:14;;;;;;;17.73;9.40;;;;;;;;;;5018844;28;20056;-77
2022/03/10 06:03:07;;;;;;;14.10;8.32;;;;;;;;;;5018812;28;20053;-75
2022/03/10 06:06:00;;;;;;;12.07;7.10;;;;;;;;;;5018446;28;20100;-76
2022/03/10 06:08:53;;;;;;;11.48;7.70;;;;;;;;;;5018369;28;20063;-75
2022/03/10 06:11:23;;;;;;;11.80;7.97;;;;;;;;;;5035852;28;20101;-75
2022/03/10 06:13:56;;;;;;;11.82;7.38;;;;;;;;;;5018231;28;20053;-75
2022/03/10 06:16:28;;;;;;;10.07;7.28;;;;;;;;;;5019803;28;20045;-75
2022/03/10 06:19:08;;;;;;;8.00;6.05;;;;;;;;;;5021281;28;20152;-76
2022/03/10 06:21:41;;;;;;;12.68;7.88;;;;;;;;;;5017877;28;20456;-75
2022/03/10 06:24:35;;;;;;;8.80;6.20;;;;;;;;;;5035639;28;20125;-75
2022/03/10 06:27:08;;;;;;;8.23;5.60;;;;;;;;;;5018470;28;20091;-74
2022/03/10 06:29:35;;;;;;;11.45;7.30;;;;;;;;;;5035386;28;20586;-76
2022/03/10 06:32:29;;;;;;;9.68;6.88;;;;;;;;;;5036160;28;20053;-75
2022/03/10 06:35:22;;;;;;;10.65;7.28;;;;;;;;;;5018192;28;20116;-75
2022/03/10 06:37:56;;;;;;;9.73;7.35;;;;;;;;;;5035823;28;20076;-75
2022/03/10 06:40:24;;;;;;;10.85;6.97;;;;;;;;;;5035597;28;20461;-75
2022/03/10 06:42:57;;;;;;;8.80;6.10;;;;;;;;;;5016893;28;20152;-75
2022/03/10 06:45:34;;;;;;;11.52;5.85;;;;;;;;;;5036716;28;20038;-76
2022/03/10 06:48:03;;;;;;;7.80;6.05;;;;;;;;;;5017611;28;20118;-76
2022/03/10 06:50:35;;;;;;;8.00;6.03;;;;;;;;;;5018560;28;20047;-76
2022/03/10 06:53:28;;;;;;;11.85;6.30;;;;;;;;;;5036316;28;20045;-75
2022/03/10 06:55:59;;;;;;;8.85;6.53;;;;;;;;;;5017449;28;20136;-75
2022/03/10 06:58:54;;;;;;;9.48;6.53;;;;;;;;;;5035320;28;20037;-75
2022/03/10 07:01:47;;;;;;;7.95;5.97;;;;;;;;;;5018879;28;20049;-76
2022/03/10 07:04:40;;;;;;;8.13;5.50;;;;;;;;;;5037526;28;20046;-76
2022/03/10 07:07:35;;;;;;;9.43;5.93;;;;;;;;;;5018518;28;20172;-75
2022/03/10 07:10:28;;;;;;;10.77;8.75;;;;;;;;;;5035451;28;20461;-74
2022/03/10 07:13:02;;;;;;;14.98;12.27;;;;;;;;;;5035466;28;20049;-75
2022/03/10 07:15:39;;;;;;;9.25;6.82;;;;;;;;;;5035094;28;20116;-74
2022/03/10 07:18:06;;;;;;;9.15;7.63;;;;;;;;;;5017519;28;20052;-74
2022/03/10 07:20:34;;;;;;;10.02;6.68;;;;;;;;;;5035145;28;20052;-74
2022/03/10 07:23:15;;;;;;;7.22;5.78;;;;;;;;;;5034784;28;20049;-76
2022/03/10 07:25:43;;;;;;;7.70;5.03;;;;;;;;;;5036001;28;20072;-76
2022/03/10 07:28:11;;;;;;;7.40;5.40;;;;;;;;;;5016669;28;20096;-75
2022/03/10 07:31:03;;;;;;;7.38;5.35;;;;;;;;;;5016525;28;20077;-75
2022/03/10 07:33:37;;;;;;;9.00;6.07;;;;;;;;;;5034729;28;20046;-75
2022/03/10 07:36:05;;;;;;;11.32;7.05;;;;;;;;;;5034462;28;20117;-75
2022/03/10 07:38:34;;;;;;;9.43;6.60;;;;;;;;;;5016510;28;20378;-74
2022/03/10 07:41:06;;;;;;;10.27;6.43;;;;;;;;;;5016957;28;20057;-75
2022/03/10 07:43:33;;;;;;;9.48;6.90;;;;;;;;;;5016624;28;20042;-74
2022/03/10 07:46:04;;;;;;;11.75;7.93;;;;;;;;;;5016111;28;20485;-74
2022/03/10 07:48:37;;;;;;;11.75;7.13;;;;;;;;;;5035155;28;20076;-74
2022/03/10 07:51:04;;;;;;;10.15;6.93;;;;;;;;;;5034438;28;20392;-75
2022/03/10 07:53:57;;;;;;;9.18;7.00;;;;;;;;;;5016724;28;20069;-74
2022/03/10 07:56:29;;;;;;;8.02;6.38;;;;;;;;;;5034399;28;20052;-75
2022/03/10 07:58:59;;;;;;;11.13;7.15;;;;;;;;;;5000250;28;20045;-75
2022/03/10 08:01:27;;;;;;;9.57;6.65;;;;;;;;;;5034245;28;20049;-75
2022/03/10 08:04:01;;;;;;;10.05;7.07;;;;;;;;;;5034031;28;20481;-75
2022/03/10 08:06:29;;;;;;;9.55;6.75;;;;;;;;;;5033963;28;20093;-75
2022/03/10 08:09:02;;;;;;;10.77;7.97;;;;;;;;;;5034355;28;20041;-76
2022/03/10 08:11:34;;;;;;;16.20;10.93;;;;;;;;;;5033831;28;20408;-75
2022/03/10 08:14:06;;;;;;;18.88;13.40;;;;;;;;;;5033539;28;20128;-75
2022/03/10 08:16:40;;;;;;;14.25;8.52;;;;;;;;;;5016163;28;20454;-76
2022/03/10 08:19:10;;;;;;;13.77;8.52;;;;;;;;;;5033101;28;20400;-75
2022/03/10 08:21:38;;;;;;;14.52;8.25;;;;;;;;;;5033235;28;20038;-74
2022/03/10 08:24:06;;;;;;;11.57;7.50;;;;;;;;;;5013216;28;20087;-75
2022/03/10 08:26:38;;;;;;;15.75;9.18;;;;;;;;;;5033631;28;20038;-74
2022/03/10 08:29:05;;;;;;;23.38;9.90;;;;;;;;;;5033503;28;20058;-75
2022/03/10 08:31:34;;;;;;;16.05;9.52;;;;;;;;;;5031965;28;20508;-75
2022/03/10 08:34:06;;;;;;;42.25;12.23;;;;;;;;;;5028188;28;20046;-74
2022/03/10 08:36:38;;;;;;;27.20;10.40;;;;;;;;;;5033611;28;20140;-77
2022/03/10 08:39:06;;;;;;;32.38;11.90;;;;;;;;;;5033118;28;20079;-75
2022/03/10 08:41:36;;;;;;;45.72;14.27;;;;;;;;;;5017114;28;20045;-76
2022/03/10 08:44:29;;;;;;;23.83;11.55;;;;;;;;;;5034074;28;20124;-76
2022/03/10 08:47:03;;;;;;;17.90;9.90;;;;;;;;;;5032921;28;20049;-76
2022/03/10 08:49:30;;;;;;;16.60;8.85;;;;;;;;;;5031753;28;20447;-75
2022/03/10 08:52:23;;;;;;;12.55;7.97;;;;;;;;;;5031948;28;20396;-75
2022/03/10 08:54:57;;;;;;;15.63;9.43;;;;;;;;;;5015744;28;20041;-74
2022/03/10 08:57:27;;;;;;;9.88;7.60;;;;;;;;;;5011687;28;20140;-74
2022/03/10 09:00:20;;;;;;;10.65;7.63;;;;;;;;;;5013391;28;20042;-75
2022/03/10 09:03:19;;;;;;;10.88;7.30;;;;;;;;;;5013365;28;20082;-73
2022/03/10 09:06:16;;;;;;;9.98;7.20;;;;;;;;;;5012823;28;20049;-76
2022/03/10 09:09:16;;;;;;;11.90;7.93;;;;;;;;;;5013675;28;20478;-76
2022/03/10 09:11:48;;;;;;;11.75;7.85;;;;;;;;;;5013319;28;20459;-75
2022/03/10 09:14:23;;;;;;;11.07;7.40;;;;;;;;;;5014436;28;20034;-75
2022/03/10 09:16:55;;;;;;;10.13;7.70;;;;;;;;;;5013056;28;20046;-76
2022/03/10 09:19:24;;;;;;;12.63;8.68;;;;;;;;;;5012893;28;20053;-76
2022/03/10 09:21:56;;;;;;;13.90;7.78;;;;;;;;;;5012918;28;20648;-75
2022/03/10 09:24:24;;;;;;;11.30;7.63;;;;;;;;;;5012063;28;20441;-75
2022/03/10 09:26:53;;;;;;;13.20;7.82;;;;;;;;;;5013068;28;20053;-75
2022/03/10 09:29:28;;;;;;;12.55;7.70;;;;;;;;;;5002485;28;20052;-75
2022/03/10 09:32:20;;;;;;;13.02;8.25;;;;;;;;;;5028631;28;20042;-75
2022/03/10 09:34:53;;;;;;;10.18;7.22;;;;;;;;;;5032690;28;20045;-75
2022/03/10 09:37:20;;;;;;;13.32;8.82;;;;;;;;;;5032556;28;20037;-76
2022/03/10 09:39:49;;;;;;;11.40;7.90;;;;;;;;;;5031475;28;20041;-76
2022/03/10 09:42:21;;;;;;;10.10;7.35;;;;;;;;;;5030865;28;20069;-75
2022/03/10 09:44:50;;;;;;;11.05;7.00;;;;;;;;;;5032909;28;20092;-76
2022/03/10 09:47:44;;;;;;;8.77;6.50;;;;;;;;;;5014802;28;20045;-75
2022/03/10 09:50:18;;;;;;;12.10;8.50;;;;;;;;;;5014795;28;20045;-75
2022/03/10 09:52:46;;;;;;;10.13;7.07;;;;;;;;;;5031488;28;20046;-76
2022/03/10 09:55:39;;;;;;;13.13;8.25;;;;;;;;;;5033030;28;20033;-76
2022/03/10 09:58:08;;;;;;;11.20;6.82;;;;;;;;;;5032554;28;20033;-75
2022/03/10 10:00:50;;;;;;;10.07;7.15;;;;;;;;;;5032547;28;20034;-74
2022/03/10 10:03:18;;;;;;;11.48;7.40;;;;;;;;;;5032838;28;20045;-77
2022/03/10 10:05:59;;;;;;;12.65;7.30;;;;;;;;;;5032633;28;20045;-75
2022/03/10 10:08:27;;;;;;;14.48;9.15;;;;;;;;;;5014802;28;20041;-75
2022/03/10 10:10:56;;;;;;;11.05;7.63;;;;;;;;;;5032365;28;20041;-75
2022/03/10 10:13:51;;;;;;;9.82;6.95;;;;;;;;;;5014758;28;20132;-75
2022/03/10 10:16:18;;;;;;;11.15;7.18;;;;;;;;;;5031144;28;20069;-75
2022/03/10 10:18:46;;;;;;;10.82;7.18;;;;;;;;;;5035107;28;20381;-75
2022/03/10 10:21:20;;;;;;;10.93;6.63;;;;;;;;;;5018904;28;20045;-76
2022/03/10 10:23:54;;;;;;;10.68;6.65;;;;;;;;;;5034639;28;20068;-74
2022/03/10 10:26:28;;;;;;;9.48;6.93;;;;;;;;;;5036121;28;20392;-75
2022/03/10 10:28:57;;;;;;;9.67;6.70;;;;;;;;;;5035589;28;20046;-75
2022/03/10 10:31:25;;;;;;;10.73;6.40;;;;;;;;;;5018038;28;20052;-75
2022/03/10 10:34:06;;;;;;;14.45;7.80;;;;;;;;;;5035747;28;20435;-75
2022/03/10 10:36:37;;;;;;;11.43;6.53;;;;;;;;;;5034299;28;20125;-76
2022/03/10 10:39:21;;;;;;;9.80;8.00;;;;;;;;;;5034450;28;20072;-75
2022/03/10 10:42:16;;;;;;;11.90;7.68;;;;;;;;;;5035185;28;20041;-75
2022/03/10 10:45:15;;;;;;;10.77;6.78;;;;;;;;;;5034416;28;20125;-76
2022/03/10 10:48:05;;;;;;;10.05;7.00;;;;;;;;;;5035642;28;20050;-75
2022/03/10 10:50:44;;;;;;;9.85;7.03;;;;;;;;;;5035777;28;20050;-76
2022/03/10 10:56:16;;;;;;;14.10;9.00;;;;;;;;;;5035515;28;20033;-76
2022/03/10 10:59:18;;;;;;;12.50;7.57;;;;;;;;;;5035497;28;20099;-79
2022/03/10 11:02:11;;;;;;;11.15;7.70;;;;;;;;;;5034209;28;20050;-76
2022/03/10 11:04:44;;;;;;;10.73;7.70;;;;;;;;;;5017062;28;20053;-75
2022/03/10 11:07:23;;;;;;;12.88;7.93;;;;;;;;;;5035042;28;20485;-75
2022/03/10 11:09:57;;;;;;;10.85;7.35;;;;;;;;;;5034313;28;20393;-76
2022/03/10 11:12:27;;;;;;;9.32;5.85;;;;;;;;;;5016976;28;20048;-76
2022/03/10 11:15:25;;;;;;;13.32;8.30;;;;;;;;;;5034776;28;20124;-76
2022/03/10 11:18:18;;;;;;;11.68;6.32;;;;;;;;;;5035273;28;20520;-76
2022/03/10 11:20:48;;;;;;;12.05;8.35;;;;;;;;;;5035003;28;20060;-75
2022/03/10 11:26:35;;;;;;;15.25;9.55;;;;;;;;;;5034849;28;20124;-74
2022/03/10 11:29:11;;;;;;;17.85;10.65;;;;;;;;;;5033970;28;20522;-75
2022/03/10 11:31:48;;;;;;;16.95;10.43;;;;;;;;;;5002724;28;20382;-75
2022/03/10 11:34:49;;;;;;;13.98;9.52;;;;;;;;;;5017532;28;20054;-75
2022/03/10 11:37:35;;;;;;;15.60;9.10;;;;;;;;;;5033874;28;20037;-75
2022/03/10 11:40:07;;;;;;;14.98;8.85;;;;;;;;;;5033208;28;20073;-75
2022/03/10 11:42:37;;;;;;;10.70;6.85;;;;;;;;;;5033165;28;20435;-75
2022/03/10 11:45:13;;;;;;;13.48;8.65;;;;;;;;;;5033143;28;20049;-75
2022/03/10 11:47:47;;;;;;;10.30;7.28;;;;;;;;;;5034543;28;20041;-76
2022/03/10 11:50:24;;;;;;;11.80;7.63;;;;;;;;;;5016576;28;20492;-74
2022/03/10 11:52:57;;;;;;;6.60;4.57;;;;;;;;;;5034500;28;20064;-75
2022/03/10 11:55:57;;;;;;;8.27;5.78;;;;;;;;;;5034737;28;20052;-74
2022/03/10 11:58:31;;;;;;;7.07;5.20;;;;;;;;;;5013714;28;20045;-74
2022/03/10 12:01:04;;;;;;;10.27;5.38;;;;;;;;;;5033995;28;20546;-75
2022/03/10 12:03:35;;;;;;;8.75;4.28;;;;;;;;;;5034124;28;20508;-74
2022/03/10 12:06:17;;;;;;;6.88;5.20;;;;;;;;;;5033225;28;20053;-74
2022/03/10 12:09:03;;;;;;;8.02;5.63;;;;;;;;;;5034152;28;20091;-75
2022/03/10 12:11:51;;;;;;;10.40;6.15;;;;;;;;;;5034101;28;20087;-75
2022/03/10 12:14:31;;;;;;;9.05;5.35;;;;;;;;;;5016959;28;20053;-75
2022/03/10 12:17:05;;;;;;;11.23;7.38;;;;;;;;;;5032709;28;20510;-75
2022/03/10 12:20:12;;;;;;;12.65;8.00;;;;;;;;;;5016819;28;20042;-73
2022/03/10 12:22:40;;;;;;;8.57;6.40;;;;;;;;;;4953477;29;20086;-75
2022/03/10 12:25:34;;;;;;;10.75;6.35;;;;;;;;;;5001673;28;20045;-75
2022/03/10 12:28:08;;;;;;;6.20;5.07;;;;;;;;;;5033740;28;20042;-75
2022/03/10 12:31:01;;;;;;;8.18;5.38;;;;;;;;;;5014222;28;20046;-76
2022/03/10 12:33:30;;;;;;;9.52;5.28;;;;;;;;;;5014175;28;20092;-74
2022/03/10 12:36:22;;;;;;;7.32;5.40;;;;;;;;;;4996429;28;20045;-75
2022/03/10 12:38:51;;;;;;;8.20;5.70;;;;;;;;;;4996094;28;20104;-76
2022/03/10 12:41:30;;;;;;;7.95;5.13;;;;;;;;;;5011727;28;20394;-76
2022/03/10 12:44:10;;;;;;;8.20;5.57;;;;;;;;;;4977314;28;20038;-75
2022/03/10 12:46:39;;;;;;;8.95;5.22;;;;;;;;;;5013817;28;20433;-76
2022/03/10 12:53:27;;;;;;;7.90;4.75;;;;;;;;;;5013338;28;20052;-77
2022/03/10 12:55:56;;;;;;;6.82;4.70;;;;;;;;;;5013768;28;20543;-75
2022/03/10 12:58:30;;;;;;;6.32;4.22;;;;;;;;;;4979743;28;20045;-75
2022/03/10 13:01:07;;;;;;;7.20;5.03;;;;;;;;;;4996033;28;20042;-75
2022/03/10 13:03:48;;;;;;;8.50;6.03;;;;;;;;;;5013480;28;20116;-75
2022/03/10 13:06:18;;;;;;;8.50;6.43;;;;;;;;;;5013283;28;20499;-75
2022/03/10 13:08:59;;;;;;;8.27;6.28;;;;;;;;;;4995962;28;20128;-74
2022/03/10 13:11:29;;;;;;;8.38;5.75;;;;;;;;;;5013281;28;20046;-75
2022/03/10 13:14:14;;;;;;;9.20;6.10;;;;;;;;;;5013624;28;20110;-74
2022/03/10 13:16:46;;;;;;;8.27;5.57;;;;;;;;;;5013337;28;20049;-76
2022/03/10 13:19:19;;;;;;;8.55;5.28;;;;;;;;;;4995739;28;20050;-75
2022/03/10 13:21:52;;;;;;;8.30;5.63;;;;;;;;;;4995759;28;20104;-75
2022/03/10 13:24:36;;;;;;;8.02;5.47;;;;;;;;;;4996239;28;20046;-75
2022/03/10 13:27:12;;;;;;;8.48;5.57;;;;;;;;;;5013445;28;20122;-74
2022/03/10 13:29:59;;;;;;;7.05;5.05;;;;;;;;;;5007829;28;20144;-74
2022/03/10 13:32:28;;;;;;;7.55;4.97;;;;;;;;;;5033159;28;20068;-74
2022/03/10 13:34:59;;;;;;;7.70;4.43;;;;;;;;;;5014837;28;20132;-73
2022/03/10 13:37:45;;;;;;;8.40;4.95;;;;;;;;;;5033084;28;20056;-76
2022/03/10 13:40:22;;;;;;;6.72;4.75;;;;;;;;;;5015896;28;20053;-75
2022/03/10 13:42:58;;;;;;;7.40;5.35;;;;;;;;;;5031711;28;20096;-74
2022/03/10 13:45:40;;;;;;;6.63;4.88;;;;;;;;;;5015635;28;20160;-75
2022/03/10 13:48:30;;;;;;;7.10;4.95;;;;;;;;;;5015043;28;20049;-75
2022/03/10 13:51:05;;;;;;;5.90;4.13;;;;;;;;;;5032724;28;20511;-75
2022/03/10 13:53:34;;;;;;;6.20;4.25;;;;;;;;;;5017821;28;20057;-75
2022/03/10 13:56:05;;;;;;;6.22;4.00;;;;;;;;;;5019382;28;20060;-75
2022/03/10 13:58:42;;;;;;;6.35;4.10;;;;;;;;;;5036834;28;20095;-75
2022/03/10 14:01:10;;;;;;;6.03;4.22;;;;;;;;;;5018670;28;20389;-74
2022/03/10 14:04:02;;;;;;;6.80;4.53;;;;;;;;;;5036578;28;20037;-77
2022/03/10 14:06:58;;;;;;;6.70;5.03;;;;;;;;;;5019045;28;20065;-74
2022/03/10 14:09:31;;;;;;;8.02;4.70;;;;;;;;;;5036356;28;20034;-72
2022/03/10 14:12:13;;;;;;;6.53;4.50;;;;;;;;;;5018456;28;20048;-73
2022/03/10 14:14:51;;;;;;;9.18;5.60;;;;;;;;;;5036174;28;20049;-73
2022/03/10 14:17:41;;;;;;;8.15;5.40;;;;;;;;;;5017504;28;20073;-73
2022/03/10 14:20:14;;;;;;;10.75;5.60;;;;;;;;;;5017845;28;20037;-74
2022/03/10 14:22:47;;;;;;;9.23;6.28;;;;;;;;;;5018847;28;20431;-73
2022/03/10 14:25:16;;;;;;;9.55;6.45;;;;;;;;;;5035893;28;20492;-73
2022/03/10 14:27:45;;;;;;;9.13;6.03;;;;;;;;;;5028263;28;20122;-73
2022/03/10 14:30:23;;;;;;;6.53;4.18;;;;;;;;;;5012774;28;20085;-77
2022/03/10 14:32:56;;;;;;;7.45;5.13;;;;;;;;;;5036247;28;20128;-76
2022/03/10 14:35:26;;;;;;;8.82;6.68;;;;;;;;;;5017822;28;20068;-76
2022/03/10 14:37:56;;;;;;;10.32;6.80;;;;;;;;;;5017945;28;20104;-76
2022/03/10 14:40:23;;;;;;;8.85;5.90;;;;;;;;;;5016218;28;20045;-75
2022/03/10 14:46:12;;;;;;;14.07;8.63;;;;;;;;;;5000064;28;20112;-74
2022/03/10 14:49:08;;;;;;;13.25;8.60;;;;;;;;;;5015609;28;20080;-72
2022/03/10 14:52:00;;;;;;;13.98;9.30;;;;;;;;;;5017683;28;20080;-72
2022/03/10 14:54:56;;;;;;;13.57;8.40;;;;;;;;;;5036019;28;20053;-70
2022/03/10 15:00:06;;;;;;;12.75;8.65;;;;;;;;;;5032214;28;19925;-71
2022/03/10 15:02:36;;;;;;;16.10;9.75;;;;;;;;;;5033835;28;20080;-72
2022/03/10 15:05:32;;;;;;;17.48;9.75;;;;;;;;;;5033446;28;20041;-72
2022/03/10 15:08:03;;;;;;;17.65;10.70;;;;;;;;;;5035311;28;20038;-72
2022/03/10 15:10:32;;;;;;;14.55;8.80;;;;;;;;;;5035565;28;20041;-71
2022/03/10 15:13:06;;;;;;;14.13;8.82;;;;;;;;;;5035007;28;20129;-71
2022/03/10 15:15:33;;;;;;;13.40;9.35;;;;;;;;;;5033726;28;20424;-71
2022/03/10 15:18:26;;;;;;;17.83;10.88;;;;;;;;;;5018062;28;20052;-72
2022/03/10 15:21:04;;;;;;;35.72;17.92;;;;;;;;;;5001745;28;20041;-69
2022/03/10 15:23:37;;;;;;;12.85;8.52;;;;;;;;;;5036570;28;20459;-71
2022/03/10 15:26:05;;;;;;;20.38;11.98;;;;;;;;;;5037680;28;20041;-72
2022/03/10 15:28:33;;;;;;;18.17;10.55;;;;;;;;;;5028381;28;20500;-71
2022/03/10 15:31:07;;;;;;;27.40;14.10;;;;;;;;;;5017638;28;20072;-72
2022/03/10 15:33:38;;;;;;;30.10;15.45;;;;;;;;;;5034288;28;20037;-71
2022/03/10 15:36:05;;;;;;;31.33;16.25;;;;;;;;;;5033539;28;20128;-71
2022/03/10 15:38:36;;;;;;;34.97;18.98;;;;;;;;;;5033235;28;20045;-70
2022/03/10 15:41:04;;;;;;;36.00;19.63;;;;;;;;;;5033177;28;20126;-70
2022/03/10 15:43:32;;;;;;;21.45;13.02;;;;;;;;;;5013771;28;20499;-71
2022/03/10 15:46:00;;;;;;;18.27;11.35;;;;;;;;;;5016227;28;20403;-71
2022/03/10 15:48:32;;;;;;;15.52;9.45;;;;;;;;;;5027215;28;20041;-71
2022/03/10 15:51:01;;;;;;;19.17;11.55;;;;;;;;;;5032114;28;20041;-71
2022/03/10 15:53:29;;;;;;;26.08;14.15;;;;;;;;;;5015948;28;20037;-71
2022/03/10 15:55:58;;;;;;;15.07;9.65;;;;;;;;;;5032881;28;20068;-71
2022/03/10 15:58:27;;;;;;;16.38;10.10;;;;;;;;;;5032989;28;20567;-70